createdAt,value
2023-03-25T00:01:16.198Z,13.30
2023-03-25T00:03:31.027Z,9.80
2023-03-25T00:05:43.505Z,9.50
2023-03-25T00:07:56.532Z,8.90
2023-03-25T00:10:10.098Z,8.20
2023-03-25T00:12:22.618Z,8.30
2023-03-25T00:14:35.259Z,7.30
2023-03-25T00:16:48.552Z,7.00
2023-03-25T00:19:02.017Z,7.60
2023-03-25T00:21:14.835Z,7.50
2023-03-25T00:23:28.655Z,8.20
2023-03-25T00:25:41.862Z,6.50
2023-03-25T00:27:54.426Z,6.60
2023-03-25T00:30:08.487Z,5.50
2023-03-25T00:32:21.041Z,6.20
2023-03-25T00:34:35.197Z,7.40
2023-03-25T00:36:47.724Z,5.10
2023-03-25T00:39:00.330Z,4.60
2023-03-25T00:41:14.413Z,6.10
2023-03-25T00:43:26.945Z,4.30
2023-03-25T00:45:39.440Z,6.40
2023-03-25T00:47:52.032Z,8.00
2023-03-25T00:50:05.998Z,8.10
2023-03-25T00:52:19.459Z,6.90
2023-03-25T00:54:34.149Z,8.60
2023-03-25T00:56:46.738Z,9.90
2023-03-25T00:58:59.357Z,6.50
2023-03-25T01:01:15.598Z,6.00
2023-03-25T01:03:31.421Z,7.40
2023-03-25T01:05:44.534Z,8.40
2023-03-25T01:07:57.047Z,9.60
2023-03-25T01:10:10.028Z,7.40
2023-03-25T01:12:22.733Z,8.10
2023-03-25T01:14:35.257Z,10.70
2023-03-25T01:16:47.883Z,6.40
2023-03-25T01:19:00.519Z,10.50
2023-03-25T01:21:13.514Z,7.30
2023-03-25T01:23:26.066Z,7.50
2023-03-25T01:25:38.793Z,7.80
2023-03-25T01:27:51.335Z,8.40
2023-03-25T01:30:04.255Z,7.80
2023-03-25T01:32:16.820Z,6.80
2023-03-25T01:34:33.103Z,5.90
2023-03-25T01:36:46.728Z,6.90
2023-03-25T01:39:01.331Z,5.00
2023-03-25T01:41:13.954Z,6.20
2023-03-25T01:43:26.556Z,5.50
2023-03-25T01:45:39.514Z,4.70
2023-03-25T01:48:00.305Z,5.80
2023-03-25T01:50:14.540Z,7.40
2023-03-25T01:52:27.717Z,4.30
2023-03-25T01:54:41.713Z,4.80
2023-03-25T01:56:55.038Z,5.20
2023-03-25T01:59:11.096Z,5.00
2023-03-25T02:01:26.591Z,5.70
2023-03-25T02:03:46.581Z,5.20
2023-03-25T02:06:05.894Z,6.00
2023-03-25T02:08:20.782Z,4.80
2023-03-25T02:10:33.851Z,4.30
2023-03-25T02:12:47.037Z,5.10
2023-03-25T02:15:03.064Z,5.00
2023-03-25T02:17:46.585Z,5.10
2023-03-25T02:20:14.926Z,5.00
2023-03-25T02:22:57.577Z,5.80
2023-03-25T02:25:35.732Z,5.20
2023-03-25T02:28:00.282Z,5.90
2023-03-25T02:30:38.797Z,5.50
2023-03-25T02:33:07.188Z,4.80
2023-03-25T02:35:49.790Z,5.10
2023-03-25T02:38:09.493Z,5.20
2023-03-25T02:40:27.913Z,5.70
2023-03-25T02:42:54.528Z,4.90
2023-03-25T02:45:15.537Z,6.20
2023-03-25T02:47:34.654Z,5.00
2023-03-25T02:49:55.092Z,6.80
2023-03-25T02:52:28.827Z,5.70
2023-03-25T02:54:45.084Z,5.40
2023-03-25T02:56:59.260Z,5.20
2023-03-25T02:59:16.725Z,4.30
2023-03-25T03:01:29.454Z,6.30
2023-03-25T03:03:42.089Z,4.50
2023-03-25T03:06:02.045Z,6.00
2023-03-25T03:08:24.159Z,7.30
2023-03-25T03:10:46.827Z,6.20
2023-03-25T03:13:41.038Z,7.70
2023-03-25T03:16:21.967Z,6.40
2023-03-25T03:18:53.434Z,7.40
2023-03-25T03:21:16.530Z,5.30
2023-03-25T03:23:42.457Z,4.80
2023-03-25T03:26:27.380Z,6.70
2023-03-25T03:28:54.246Z,5.80
2023-03-25T03:31:48.804Z,6.20
2023-03-25T03:34:05.607Z,6.20
2023-03-25T03:36:22.363Z,5.80
2023-03-25T03:38:40.737Z,5.70
2023-03-25T03:40:58.232Z,6.50
2023-03-25T03:43:17.026Z,7.00
2023-03-25T03:45:35.550Z,7.30
2023-03-25T03:47:52.470Z,7.30
2023-03-25T03:50:09.626Z,6.20
2023-03-25T03:52:28.555Z,6.40
2023-03-25T03:54:50.865Z,8.30
2023-03-25T03:57:11.546Z,8.70
2023-03-25T03:59:41.359Z,9.00
2023-03-25T04:02:01.601Z,7.40
2023-03-25T04:04:23.854Z,6.20
2023-03-25T04:07:04.820Z,6.20
2023-03-25T04:09:28.216Z,7.60
2023-03-25T04:11:47.063Z,6.50
2023-03-25T04:14:02.567Z,6.10
2023-03-25T04:16:15.601Z,6.60
2023-03-25T04:18:28.578Z,6.50
2023-03-25T04:20:44.676Z,9.60
2023-03-25T04:22:57.271Z,8.70
2023-03-25T04:25:09.843Z,9.80
2023-03-25T04:27:29.695Z,10.70
2023-03-25T04:29:44.028Z,10.00
2023-03-25T04:31:57.706Z,11.50
2023-03-25T04:34:10.649Z,9.40
2023-03-25T04:36:24.484Z,10.40
2023-03-25T04:38:37.782Z,11.20
2023-03-25T04:40:50.410Z,7.40
2023-03-25T04:43:03.016Z,5.90
2023-03-25T04:45:19.266Z,6.10
2023-03-25T04:47:32.446Z,8.00
2023-03-25T04:49:45.373Z,8.00
2023-03-25T04:51:59.121Z,6.40
2023-03-25T04:54:12.062Z,5.90
2023-03-25T04:56:24.769Z,8.40
2023-03-25T04:58:37.277Z,8.10
2023-03-25T05:00:51.814Z,6.00
2023-03-25T05:03:04.374Z,7.00
2023-03-25T05:05:19.603Z,7.50
2023-03-25T05:07:33.357Z,6.70
2023-03-25T05:09:45.950Z,6.60
2023-03-25T05:11:58.716Z,5.50
2023-03-25T05:14:14.027Z,6.50
2023-03-25T05:16:26.862Z,8.20
2023-03-25T05:18:39.455Z,8.30
2023-03-25T05:20:53.467Z,7.40
2023-03-25T05:23:12.211Z,7.00
2023-03-25T05:25:24.843Z,7.20
2023-03-25T05:27:38.482Z,5.20
2023-03-25T05:29:51.919Z,6.90
2023-03-25T05:32:04.698Z,6.70
2023-03-25T05:34:17.675Z,9.00
2023-03-25T05:36:31.313Z,12.90
2023-03-25T05:38:44.342Z,12.10
2023-03-25T05:40:56.935Z,11.70
2023-03-25T05:43:09.537Z,9.40
2023-03-25T05:45:22.822Z,5.50
2023-03-25T05:47:35.450Z,7.70
2023-03-25T05:49:48.852Z,6.70
2023-03-25T05:52:01.810Z,5.40
2023-03-25T05:54:14.366Z,6.90
2023-03-25T05:56:26.946Z,5.70
2023-03-25T05:58:39.536Z,5.80
2023-03-25T06:00:52.315Z,5.50
2023-03-25T06:03:07.493Z,7.00
2023-03-25T06:05:23.710Z,6.50
2023-03-25T06:07:37.570Z,5.40
2023-03-25T06:09:50.193Z,6.20
2023-03-25T06:12:03.989Z,5.60
2023-03-25T06:14:16.563Z,4.90
2023-03-25T06:16:29.646Z,5.80
2023-03-25T06:18:42.678Z,4.20
2023-03-25T06:20:57.639Z,6.00
2023-03-25T06:23:10.261Z,5.20
2023-03-25T06:25:23.563Z,5.90
2023-03-25T06:27:40.222Z,4.20
2023-03-25T06:29:52.789Z,5.80
2023-03-25T06:32:05.899Z,6.20
2023-03-25T06:34:18.494Z,4.60
2023-03-25T06:36:31.471Z,6.70
2023-03-25T06:38:46.710Z,5.20
2023-03-25T06:40:59.550Z,4.90
2023-03-25T06:43:12.111Z,3.30
2023-03-25T06:45:24.673Z,4.50
2023-03-25T06:47:37.456Z,4.40
2023-03-25T06:49:50.321Z,5.10
2023-03-25T06:52:02.905Z,4.50
2023-03-25T06:54:15.646Z,4.40
2023-03-25T06:56:28.363Z,5.30
2023-03-25T06:58:41.843Z,4.50
2023-03-25T07:00:54.899Z,5.20
2023-03-25T07:03:07.634Z,4.20
2023-03-25T07:05:20.365Z,5.60
2023-03-25T07:07:33.065Z,3.90
2023-03-25T07:09:45.604Z,4.50
2023-03-25T07:11:58.279Z,5.00
2023-03-25T07:14:10.947Z,6.10
2023-03-25T07:16:23.671Z,5.60
2023-03-25T07:18:36.414Z,4.50
2023-03-25T07:20:49.079Z,5.20
2023-03-25T07:23:01.645Z,5.10
2023-03-25T07:25:14.183Z,4.60
2023-03-25T07:27:26.844Z,5.70
2023-03-25T07:29:39.887Z,5.20
2023-03-25T07:31:52.488Z,5.50
2023-03-25T07:34:05.694Z,4.60
2023-03-25T07:36:18.609Z,6.40
2023-03-25T07:38:31.173Z,4.90
2023-03-25T07:40:43.709Z,4.70
2023-03-25T07:43:04.996Z,5.20
2023-03-25T07:45:17.650Z,4.80
2023-03-25T07:47:30.329Z,4.90
2023-03-25T07:49:43.925Z,4.80
2023-03-25T07:51:56.502Z,4.30
2023-03-25T07:54:09.616Z,5.50
2023-03-25T07:56:22.167Z,5.10
2023-03-25T07:58:34.753Z,3.80
2023-03-25T08:00:47.424Z,5.40
2023-03-25T08:03:00.049Z,3.40
2023-03-25T08:05:12.712Z,3.40
2023-03-25T08:07:25.557Z,3.40
2023-03-25T08:09:38.088Z,3.50
2023-03-25T08:11:51.430Z,3.10
2023-03-25T08:14:04.051Z,4.00
2023-03-25T08:16:16.623Z,3.80
2023-03-25T08:18:29.309Z,3.30
2023-03-25T08:20:42.113Z,3.00
2023-03-25T08:22:54.655Z,3.80
2023-03-25T08:25:07.720Z,2.50
2023-03-25T08:27:20.444Z,2.80
2023-03-25T08:29:34.502Z,3.90
2023-03-25T08:31:52.532Z,3.10
2023-03-25T08:34:05.916Z,3.60
2023-03-25T08:36:23.286Z,2.70
2023-03-25T08:38:36.042Z,3.70
2023-03-25T08:40:48.714Z,3.30
2023-03-25T08:43:04.191Z,2.60
2023-03-25T08:45:16.763Z,2.90
2023-03-25T08:47:29.457Z,2.90
2023-03-25T08:49:42.042Z,2.50
2023-03-25T08:51:54.858Z,2.50
2023-03-25T08:54:07.440Z,2.10
2023-03-25T08:56:20.454Z,2.10
2023-03-25T08:58:33.011Z,2.60
2023-03-25T09:00:45.634Z,2.10
2023-03-25T09:02:59.135Z,1.40
2023-03-25T09:05:13.237Z,1.80
2023-03-25T09:07:26.009Z,2.50
2023-03-25T09:09:38.824Z,1.40
2023-03-25T09:11:51.432Z,2.00
2023-03-25T09:14:05.141Z,1.70
2023-03-25T09:16:17.763Z,1.10
2023-03-25T09:18:31.981Z,1.70
2023-03-25T09:20:48.210Z,1.30
2023-03-25T09:23:00.794Z,1.40
2023-03-25T09:25:14.030Z,3.10
2023-03-25T09:27:26.862Z,1.30
2023-03-25T09:29:39.552Z,2.50
2023-03-25T09:31:52.051Z,10.00
2023-03-25T09:34:04.711Z,2.10
2023-03-25T09:36:17.240Z,1.40
2023-03-25T09:38:30.259Z,1.70
2023-03-25T09:40:44.071Z,1.80
2023-03-25T09:42:59.577Z,1.70
2023-03-25T09:45:35.777Z,1.70
2023-03-25T09:47:56.335Z,1.80
2023-03-25T09:50:14.737Z,1.60
2023-03-25T09:52:32.465Z,1.50
2023-03-25T09:54:53.708Z,1.30
2023-03-25T09:57:11.376Z,1.40
2023-03-25T09:59:34.746Z,1.10
2023-03-25T10:02:01.943Z,1.00
2023-03-25T10:04:26.449Z,1.10
2023-03-25T10:07:09.237Z,2.10
2023-03-25T10:10:13.408Z,2.20
2023-03-25T10:12:47.692Z,0.90
2023-03-25T10:15:32.649Z,1.20
2023-03-25T10:17:56.475Z,1.50
2023-03-25T10:20:16.654Z,1.10
2023-03-25T10:22:44.693Z,1.30
2023-03-25T10:25:07.000Z,1.60
2023-03-25T10:27:46.704Z,0.90
2023-03-25T10:30:06.346Z,2.00
2023-03-25T10:32:31.375Z,1.20
2023-03-25T10:34:52.769Z,1.50
2023-03-25T10:37:12.506Z,1.00
2023-03-25T10:39:34.204Z,1.70
2023-03-25T10:42:01.725Z,3.90
2023-03-25T10:44:14.329Z,1.10
2023-03-25T10:46:46.823Z,1.80
2023-03-25T10:48:59.661Z,2.40
2023-03-25T10:51:16.395Z,1.80
2023-03-25T10:53:29.678Z,2.30
2023-03-25T10:55:42.417Z,3.30
2023-03-25T10:57:56.184Z,4.30
2023-03-25T11:00:22.783Z,3.70
2023-03-25T11:02:35.563Z,3.80
2023-03-25T11:04:52.408Z,2.50
2023-03-25T11:07:16.520Z,3.00
2023-03-25T11:09:32.590Z,4.60
2023-03-25T11:11:46.693Z,7.10
2023-03-25T11:13:59.262Z,4.30
2023-03-25T11:16:11.969Z,4.20
2023-03-25T11:18:27.613Z,1.90
2023-03-25T11:20:47.918Z,5.90
2023-03-25T11:23:06.278Z,6.00
2023-03-25T11:25:33.000Z,2.20
2023-03-25T11:27:55.461Z,3.40
2023-03-25T11:30:19.048Z,3.00
2023-03-25T11:32:37.539Z,2.70
2023-03-25T11:34:51.902Z,2.50
2023-03-25T11:37:19.790Z,3.30
2023-03-25T11:39:42.421Z,2.40
2023-03-25T11:41:55.260Z,2.00
2023-03-25T11:44:21.776Z,2.70
2023-03-25T11:46:41.368Z,2.80
2023-03-25T11:48:54.016Z,3.30
2023-03-25T11:51:35.705Z,2.30
2023-03-25T11:53:59.283Z,2.20
2023-03-25T11:56:17.020Z,2.30
2023-03-25T11:58:33.480Z,2.80
2023-03-25T12:00:51.565Z,1.40
2023-03-25T12:03:20.959Z,2.10
2023-03-25T12:05:33.977Z,1.80
2023-03-25T12:07:51.660Z,2.50
2023-03-25T12:10:07.453Z,3.20
2023-03-25T12:12:47.286Z,3.30
2023-03-25T12:15:20.725Z,4.10
2023-03-25T12:17:36.298Z,2.00
2023-03-25T12:20:22.020Z,3.50
2023-03-25T12:23:13.916Z,2.80
2023-03-25T12:25:53.805Z,3.60
2023-03-25T12:28:30.737Z,3.60
2023-03-25T12:30:46.427Z,2.50
2023-03-25T12:33:26.366Z,2.20
2023-03-25T12:35:58.692Z,2.60
2023-03-25T12:38:22.886Z,2.40
2023-03-25T12:40:47.612Z,2.50
2023-03-25T12:43:06.200Z,3.20
2023-03-25T12:45:39.788Z,3.70
2023-03-25T12:48:04.445Z,2.00
2023-03-25T12:50:43.849Z,1.60
2023-03-25T12:53:33.923Z,3.20
2023-03-25T12:56:02.950Z,2.20
2023-03-25T12:58:31.062Z,2.20
2023-03-25T13:01:11.206Z,1.40
2023-03-25T13:03:37.641Z,1.60
2023-03-25T13:05:58.419Z,1.40
2023-03-25T13:08:44.522Z,1.60
2023-03-25T13:11:06.597Z,2.10
2023-03-25T13:13:25.756Z,2.30
2023-03-25T13:15:52.801Z,1.60
2023-03-25T13:18:44.851Z,1.80
2023-03-25T13:21:14.478Z,0.80
2023-03-25T13:23:30.429Z,0.60
2023-03-25T13:25:57.465Z,1.70
2023-03-25T13:28:16.546Z,0.60
2023-03-25T13:30:40.969Z,1.10
2023-03-25T13:32:58.772Z,1.10
2023-03-25T13:35:16.883Z,3.70
2023-03-25T13:37:37.032Z,3.50
2023-03-25T13:40:00.929Z,1.90
2023-03-25T13:42:21.183Z,3.40
2023-03-25T13:44:40.715Z,2.30
2023-03-25T13:47:03.404Z,4.70
2023-03-25T13:49:26.224Z,2.40
2023-03-25T13:51:39.266Z,1.90
2023-03-25T13:53:51.868Z,1.20
2023-03-25T13:56:07.150Z,2.70
2023-03-25T13:59:02.125Z,2.70
2023-03-25T14:01:41.251Z,1.70
2023-03-25T14:04:27.225Z,3.40
2023-03-25T14:07:12.458Z,2.00
2023-03-25T14:09:43.888Z,1.90
2023-03-25T14:12:17.298Z,1.50
2023-03-25T14:14:36.610Z,1.10
2023-03-25T14:16:58.046Z,1.60
2023-03-25T14:19:18.107Z,1.60
2023-03-25T14:21:36.508Z,2.00
2023-03-25T14:24:00.214Z,1.40
2023-03-25T14:26:17.669Z,1.30
2023-03-25T14:28:40.265Z,14.60
2023-03-25T14:31:14.574Z,1.20
2023-03-25T14:33:27.275Z,1.10
2023-03-25T14:35:41.480Z,1.30
2023-03-25T14:37:54.129Z,2.70
2023-03-25T14:40:55.379Z,2.50
2023-03-25T14:43:24.004Z,1.50
2023-03-25T14:45:50.904Z,1.40
2023-03-25T14:48:23.012Z,2.00
2023-03-25T14:50:37.687Z,3.00
2023-03-25T14:52:52.952Z,1.10
2023-03-25T14:55:31.014Z,1.60
2023-03-25T14:57:45.561Z,0.60
2023-03-25T15:00:14.214Z,0.90
2023-03-25T15:02:30.016Z,1.70
2023-03-25T15:04:44.040Z,1.10
2023-03-25T15:06:57.360Z,0.50
2023-03-25T15:09:12.964Z,0.60
2023-03-25T15:11:32.198Z,1.70
2023-03-25T15:13:52.842Z,1.10
2023-03-25T15:16:31.930Z,0.70
2023-03-25T15:18:44.819Z,1.10
2023-03-25T15:21:12.413Z,0.90
2023-03-25T15:23:34.472Z,1.00
2023-03-25T15:25:50.153Z,0.80
2023-03-25T15:28:21.525Z,1.50
2023-03-25T15:31:09.725Z,1.90
2023-03-25T15:33:34.958Z,3.00
2023-03-25T15:36:11.181Z,1.80
2023-03-25T15:38:46.272Z,3.30
2023-03-25T15:41:27.001Z,2.20
2023-03-25T15:44:07.648Z,2.30
2023-03-25T15:46:59.925Z,2.70
2023-03-25T15:49:23.088Z,2.60
2023-03-25T15:52:10.136Z,2.30
2023-03-25T15:54:32.968Z,2.90
2023-03-25T15:56:48.219Z,1.80
2023-03-25T15:59:20.921Z,2.40
2023-03-25T16:01:39.383Z,1.50
2023-03-25T16:04:04.860Z,1.50
2023-03-25T16:06:18.180Z,2.00
2023-03-25T16:08:34.980Z,1.70
2023-03-25T16:10:47.634Z,2.30
2023-03-25T16:13:07.609Z,2.10
2023-03-25T16:15:28.482Z,2.50
2023-03-25T16:17:42.700Z,2.50
2023-03-25T16:19:56.877Z,3.00
2023-03-25T16:22:15.454Z,2.30
2023-03-25T16:24:34.238Z,2.70
2023-03-25T16:26:49.166Z,2.90
2023-03-25T16:29:22.410Z,1.90
2023-03-25T16:31:42.741Z,1.60
2023-03-25T16:34:00.295Z,1.70
2023-03-25T16:36:17.559Z,1.60
2023-03-25T16:38:31.719Z,2.00
2023-03-25T16:40:46.805Z,2.10
2023-03-25T16:43:07.794Z,2.30
2023-03-25T16:45:21.000Z,3.30
2023-03-25T16:47:33.921Z,1.90
2023-03-25T16:49:49.315Z,1.80
2023-03-25T16:52:07.931Z,4.70
2023-03-25T16:54:28.168Z,2.70
2023-03-25T16:56:43.246Z,3.30
2023-03-25T16:59:04.531Z,5.20
2023-03-25T17:01:17.332Z,5.10
2023-03-25T17:03:44.908Z,6.00
2023-03-25T17:06:04.662Z,3.20
2023-03-25T17:08:19.653Z,2.60
2023-03-25T17:10:46.101Z,3.60
2023-03-25T17:13:08.587Z,5.90
2023-03-25T17:15:22.020Z,3.50
2023-03-25T17:17:51.681Z,2.40
2023-03-25T17:20:08.865Z,3.70
2023-03-25T17:22:28.325Z,3.40
2023-03-25T17:24:42.918Z,4.30
2023-03-25T17:27:04.086Z,3.40
2023-03-25T17:29:18.102Z,2.80
2023-03-25T17:31:30.707Z,4.20
2023-03-25T17:33:57.968Z,5.30
2023-03-25T17:36:11.508Z,6.10
2023-03-25T17:38:33.867Z,4.20
2023-03-25T17:40:46.535Z,4.40
2023-03-25T17:42:59.116Z,4.60
2023-03-25T17:45:16.309Z,8.20
2023-03-25T17:47:28.880Z,11.40
2023-03-25T17:49:41.513Z,14.30
2023-03-25T17:51:54.087Z,16.80
2023-03-25T17:54:06.702Z,14.70
2023-03-25T17:56:25.035Z,15.40
2023-03-25T17:58:40.108Z,14.30
2023-03-25T18:00:53.098Z,13.70
2023-03-25T18:03:11.501Z,12.70
2023-03-25T18:05:24.055Z,20.30
2023-03-25T18:07:36.735Z,21.60
2023-03-25T18:09:49.238Z,20.40
2023-03-25T18:12:02.313Z,28.70
2023-03-25T18:14:15.060Z,23.30
2023-03-25T18:16:27.674Z,20.00
2023-03-25T18:18:40.352Z,16.20
2023-03-25T18:21:03.749Z,15.40
2023-03-25T18:23:16.739Z,12.70
2023-03-25T18:25:29.488Z,16.30
2023-03-25T18:27:44.297Z,19.40
2023-03-25T18:29:57.155Z,11.40
2023-03-25T18:32:09.637Z,9.10
2023-03-25T18:34:24.544Z,15.90
2023-03-25T18:36:37.506Z,17.20
2023-03-25T18:38:50.101Z,16.00
2023-03-25T18:41:03.425Z,13.70
2023-03-25T18:43:16.274Z,14.60
2023-03-25T18:45:28.952Z,12.30
2023-03-25T18:47:41.568Z,12.00
2023-03-25T18:49:55.106Z,8.10
2023-03-25T18:52:07.620Z,8.80
2023-03-25T18:54:20.234Z,7.30
2023-03-25T18:56:32.844Z,6.20
2023-03-25T18:58:45.912Z,6.10
2023-03-25T19:01:00.224Z,8.40
2023-03-25T19:03:14.567Z,6.10
2023-03-25T19:05:27.559Z,4.20
2023-03-25T19:07:40.630Z,4.20
2023-03-25T19:09:54.156Z,3.60
2023-03-25T19:12:06.769Z,4.70
2023-03-25T19:14:19.316Z,3.70
2023-03-25T19:16:32.226Z,4.10
2023-03-25T19:18:44.896Z,4.50
2023-03-25T19:20:57.905Z,3.50
2023-03-25T19:23:11.948Z,6.40
2023-03-25T19:25:24.969Z,5.40
2023-03-25T19:27:37.745Z,9.70
2023-03-25T19:29:50.339Z,10.80
2023-03-25T19:32:02.988Z,7.80
2023-03-25T19:34:16.621Z,7.80
2023-03-25T19:36:34.583Z,9.00
2023-03-25T19:38:47.104Z,7.20
2023-03-25T19:41:08.496Z,6.90
2023-03-25T19:43:21.081Z,11.70
2023-03-25T19:45:34.313Z,16.80
2023-03-25T19:47:47.654Z,16.20
2023-03-25T19:50:00.285Z,8.60
2023-03-25T19:52:13.005Z,9.50
2023-03-25T19:54:25.636Z,15.20
2023-03-25T19:56:38.161Z,11.10
2023-03-25T19:58:50.813Z,11.70
2023-03-25T20:01:03.436Z,6.50
2023-03-25T20:03:16.079Z,4.40
2023-03-25T20:05:31.086Z,7.00
2023-03-25T20:07:45.548Z,7.40
2023-03-25T20:10:04.367Z,5.50
2023-03-25T20:12:22.891Z,3.60
2023-03-25T20:14:35.969Z,5.60
2023-03-25T20:16:48.822Z,5.40
2023-03-25T20:19:01.669Z,5.30
2023-03-25T20:21:14.363Z,6.00
2023-03-25T20:23:27.030Z,6.10
2023-03-25T20:25:39.852Z,5.70
2023-03-25T20:27:52.590Z,5.40
2023-03-25T20:30:07.297Z,4.90
2023-03-25T20:32:21.609Z,4.60
2023-03-25T20:34:34.635Z,3.90
2023-03-25T20:36:48.222Z,4.00
2023-03-25T20:39:05.364Z,6.30
2023-03-25T20:41:18.321Z,5.00
2023-03-25T20:43:31.282Z,3.50
2023-03-25T20:45:43.908Z,3.30
2023-03-25T20:47:57.645Z,3.60
2023-03-25T20:50:12.943Z,3.10
2023-03-25T20:52:25.745Z,4.10
2023-03-25T20:54:38.317Z,6.40
2023-03-25T20:56:51.726Z,3.60
2023-03-25T20:59:05.430Z,4.60
2023-03-25T21:01:18.378Z,4.10
2023-03-25T21:03:32.361Z,4.00
2023-03-25T21:05:45.391Z,3.80
2023-03-25T21:07:57.968Z,4.30
2023-03-25T21:10:11.010Z,6.90
2023-03-25T21:12:32.905Z,5.20
2023-03-25T21:14:54.338Z,5.90
2023-03-25T21:17:06.938Z,6.00
2023-03-25T21:19:19.692Z,6.60
2023-03-25T21:21:32.426Z,5.80
2023-03-25T21:23:45.015Z,6.50
2023-03-25T21:26:02.752Z,7.00
2023-03-25T21:28:18.094Z,5.80
2023-03-25T21:30:32.019Z,6.40
2023-03-25T21:32:44.679Z,5.30
2023-03-25T21:34:59.551Z,5.10
2023-03-25T21:37:12.147Z,5.70
2023-03-25T21:39:24.760Z,6.80
2023-03-25T21:41:37.751Z,7.50
2023-03-25T21:43:50.777Z,10.50
2023-03-25T21:46:06.144Z,10.40
2023-03-25T21:48:21.419Z,9.40
2023-03-25T21:50:36.293Z,9.90
2023-03-25T21:52:48.860Z,9.80
2023-03-25T21:55:02.148Z,10.20
2023-03-25T21:57:14.765Z,10.50
2023-03-25T21:59:27.606Z,9.30
2023-03-25T22:01:42.405Z,9.10
2023-03-25T22:03:57.197Z,9.80
2023-03-25T22:06:12.875Z,8.70
2023-03-25T22:08:25.407Z,6.90
2023-03-25T22:10:37.986Z,7.90
2023-03-25T22:12:51.076Z,8.20
2023-03-25T22:15:04.004Z,7.00
2023-03-25T22:17:16.580Z,6.90
2023-03-25T22:19:30.975Z,8.50
2023-03-25T22:21:43.566Z,8.60
2023-03-25T22:23:59.222Z,6.90
2023-03-25T22:26:13.174Z,6.80
2023-03-25T22:28:26.487Z,7.30
2023-03-25T22:30:39.775Z,5.40
2023-03-25T22:32:52.333Z,7.20
2023-03-25T22:35:05.528Z,6.60
2023-03-25T22:37:18.154Z,5.40
2023-03-25T22:39:30.875Z,6.80
2023-03-25T22:41:43.899Z,4.80
2023-03-25T22:43:56.586Z,5.30
2023-03-25T22:46:09.657Z,5.60
2023-03-25T22:48:22.214Z,4.70
2023-03-25T22:50:34.853Z,4.30
2023-03-25T22:52:47.376Z,4.60
2023-03-25T22:55:00.232Z,4.30
2023-03-25T22:57:13.139Z,4.30
2023-03-25T22:59:25.856Z,5.60
2023-03-25T23:01:38.948Z,3.40
2023-03-25T23:03:53.924Z,4.00
2023-03-25T23:06:08.570Z,4.60
2023-03-25T23:08:21.276Z,6.10
2023-03-25T23:10:34.012Z,4.60
2023-03-25T23:12:46.976Z,4.40
2023-03-25T23:14:59.517Z,4.40
2023-03-25T23:17:12.603Z,4.30
2023-03-25T23:19:25.231Z,4.50
2023-03-25T23:21:38.273Z,4.90
2023-03-25T23:23:54.314Z,4.30
2023-03-25T23:26:13.464Z,4.60
2023-03-25T23:28:26.768Z,3.90
2023-03-25T23:30:45.611Z,4.50
2023-03-25T23:32:58.226Z,3.90
2023-03-25T23:35:10.915Z,3.70
2023-03-25T23:37:26.185Z,5.10
2023-03-25T23:39:40.361Z,3.80
2023-03-25T23:41:54.251Z,3.30
2023-03-25T23:44:06.904Z,4.50
2023-03-25T23:46:21.154Z,2.90
2023-03-25T23:48:40.609Z,3.50
2023-03-25T23:50:54.606Z,4.30
2023-03-25T23:53:07.139Z,2.90
2023-03-25T23:55:20.586Z,4.10
2023-03-25T23:57:33.208Z,3.40
2023-03-25T23:59:46.409Z,2.80
